Time;durP1;ratioP1;P1;durP2;ratioP2;P2;SDS_P1;SDS_P2;PMS_P1;PMS_P2;Temp;Humidity;BMP_temperature;BMP_pressure;BME280_temperature;BME280_humidity;BME280_pressure;Samples;Min_cycle;Max_cycle;Signal;HPM_P1;HPM_P2
2021/09/26 00:01:42;;;;;;;5.18;2.85;;;15.60;99.90;;;;;;4992231;28;20072;-48
2021/09/26 00:04:08;;;;;;;2.85;2.42;;;15.60;99.90;;;;;;4992481;28;20473;-52
2021/09/26 00:06:33;;;;;;;3.08;2.83;;;15.60;99.90;;;;;;4992344;28;20018;-53
2021/09/26 00:08:59;;;;;;;2.53;2.33;;;15.60;99.90;;;;;;4991696;28;20026;-52
2021/09/26 00:11:25;;;;;;;3.15;2.85;;;15.60;99.90;;;;;;4991924;28;20019;-53
2021/09/26 00:13:51;;;;;;;2.72;2.53;;;15.60;99.90;;;;;;4992075;28;20485;-52
2021/09/26 00:16:17;;;;;;;3.20;2.88;;;15.60;99.90;;;;;;4991562;28;20027;-53
2021/09/26 00:18:42;;;;;;;3.00;2.70;;;15.70;99.90;;;;;;4991944;28;20041;-53
2021/09/26 00:21:08;;;;;;;3.58;2.60;;;15.70;99.90;;;;;;4991260;28;20058;-55
2021/09/26 00:23:34;;;;;;;3.65;2.95;;;15.70;99.90;;;;;;4991413;28;20092;-53
2021/09/26 00:26:02;;;;;;;2.88;2.40;;;15.70;99.90;;;;;;4991192;28;20485;-50
2021/09/26 00:28:28;;;;;;;3.53;2.88;;;15.70;99.90;;;;;;4991769;28;20397;-53
2021/09/26 00:30:55;;;;;;;3.22;2.38;;;15.70;99.90;;;;;;4991307;28;20124;-53
2021/09/26 00:33:20;;;;;;;3.75;2.40;;;15.70;99.90;;;;;;4988952;28;20018;-52
2021/09/26 00:35:46;;;;;;;3.90;3.03;;;15.60;99.90;;;;;;4991886;28;20022;-56
2021/09/26 00:38:11;;;;;;;2.53;2.33;;;15.70;99.90;;;;;;4991651;28;20081;-53
2021/09/26 00:40:37;;;;;;;5.30;2.67;;;15.70;99.90;;;;;;4991150;28;20069;-51
2021/09/26 00:43:05;;;;;;;3.08;2.78;;;15.60;99.90;;;;;;4991446;28;20388;-53
2021/09/26 00:45:31;;;;;;;3.05;2.65;;;15.60;99.90;;;;;;4991422;28;20065;-50
2021/09/26 00:47:57;;;;;;;2.70;2.50;;;15.70;99.90;;;;;;4991349;28;20093;-52
2021/09/26 00:50:24;;;;;;;3.33;2.75;;;15.60;99.90;;;;;;4990961;28;20080;-55
2021/09/26 00:52:50;;;;;;;3.85;2.53;;;15.70;99.90;;;;;;4990003;28;20023;-51
2021/09/26 00:55:16;;;;;;;2.90;2.60;;;15.70;99.90;;;;;;4990993;28;20041;-52
2021/09/26 00:57:44;;;;;;;2.70;2.50;;;15.70;99.90;;;;;;4990668;28;20053;-50
2021/09/26 01:00:14;;;;;;;3.85;2.50;;;15.70;99.90;;;;;;4988468;28;20479;-53
2021/09/26 01:02:39;;;;;;;2.80;2.55;;;15.70;99.90;;;;;;4988973;28;20058;-51
2021/09/26 01:05:08;;;;;;;3.97;2.80;;;15.70;99.90;;;;;;5005243;28;20469;-55
2021/09/26 01:08:04;;;;;;;2.95;2.70;;;15.70;99.90;;;;;;4991173;28;20041;-55
2021/09/26 01:10:40;;;;;;;2.60;2.40;;;15.70;99.90;;;;;;4990486;28;20030;-57
2021/09/26 01:13:19;;;;;;;5.35;2.72;;;15.70;99.90;;;;;;4990837;28;20022;-55
2021/09/26 01:16:04;;;;;;;2.85;2.65;;;15.70;99.90;;;;;;4990569;28;20030;-51
2021/09/26 01:19:01;;;;;;;3.20;2.33;;;15.70;99.90;;;;;;4990930;28;20026;-55
2021/09/26 01:21:50;;;;;;;;;;;15.70;99.90;;;;;;4991105;28;20323;-54
2021/09/26 01:24:41;;;;;;;2.55;2.35;;;15.60;99.90;;;;;;4992322;28;19913;-57
2021/09/26 01:27:42;;;;;;;3.22;2.90;;;15.60;99.90;;;;;;4990659;28;20018;-55
2021/09/26 01:30:15;;;;;;;3.45;2.92;;;15.60;99.90;;;;;;4990475;28;20057;-57
2021/09/26 01:32:44;;;;;;;3.58;2.35;;;15.60;99.90;;;;;;4990481;28;20022;-56
2021/09/26 01:35:13;;;;;;;3.20;2.40;;;15.60;99.90;;;;;;4990734;28;20037;-55
2021/09/26 01:37:48;;;;;;;3.20;2.30;;;15.60;99.90;;;;;;4990909;28;20046;-52
2021/09/26 01:40:28;;;;;;;3.22;2.50;;;15.60;99.90;;;;;;4990230;28;20081;-55
2021/09/26 01:43:02;;;;;;;2.97;2.65;;;15.60;99.90;;;;;;4990010;28;20129;-53
2021/09/26 01:45:36;;;;;;;3.78;2.35;;;15.60;99.90;;;;;;4990296;28;20077;-55
2021/09/26 01:48:14;;;;;;;3.08;2.35;;;15.50;99.90;;;;;;4988360;28;20029;-54
2021/09/26 01:50:41;;;;;;;3.03;2.63;;;15.50;99.90;;;;;;4981805;28;20031;-55
2021/09/26 01:53:09;;;;;;;2.65;2.40;;;15.50;99.90;;;;;;4990609;28;20026;-50
2021/09/26 01:55:35;;;;;;;2.40;2.22;;;15.50;99.90;;;;;;4989190;28;20042;-54
2021/09/26 01:58:01;;;;;;;2.55;2.35;;;15.50;99.90;;;;;;4990670;28;20373;-53
2021/09/26 02:00:27;;;;;;;2.47;2.15;;;15.50;99.90;;;;;;4990139;28;20023;-52
2021/09/26 02:02:54;;;;;;;2.05;1.90;;;15.50;99.90;;;;;;4990596;28;20038;-52
2021/09/26 02:05:20;;;;;;;5.05;2.50;;;15.50;99.90;;;;;;4984106;28;20038;-56
2021/09/26 02:07:48;;;;;;;2.55;2.25;;;15.50;99.90;;;;;;4981497;28;20033;-53
2021/09/26 02:10:17;;;;;;;5.18;2.65;;;15.50;99.90;;;;;;4990291;28;20062;-53
2021/09/26 02:12:43;;;;;;;3.60;2.45;;;15.50;99.90;;;;;;4990550;28;20056;-56
2021/09/26 02:15:15;;;;;;;3.85;2.78;;;15.50;99.90;;;;;;4988799;28;20026;-50
2021/09/26 02:17:44;;;;;;;3.33;2.85;;;15.50;99.90;;;;;;4990391;28;20026;-56
2021/09/26 02:20:11;;;;;;;3.20;2.85;;;15.50;99.90;;;;;;4989997;28;20036;-55
2021/09/26 02:22:38;;;;;;;2.90;2.60;;;15.50;99.90;;;;;;4991346;28;20467;-53
2021/09/26 02:25:08;;;;;;;3.95;2.60;;;15.50;99.90;;;;;;4993633;28;20041;-50
2021/09/26 02:27:35;;;;;;;2.72;2.17;;;15.50;99.90;;;;;;4994072;28;20387;-53
2021/09/26 02:30:02;;;;;;;3.25;2.42;;;15.40;99.90;;;;;;4993782;28;20110;-50
2021/09/26 02:32:28;;;;;;;2.58;2.38;;;15.50;99.90;;;;;;4993795;28;20089;-54
2021/09/26 02:34:53;;;;;;;3.05;2.35;;;15.40;99.90;;;;;;4993797;28;20038;-52
2021/09/26 02:37:19;;;;;;;2.88;2.53;;;15.40;99.90;;;;;;4993809;28;20125;-51
2021/09/26 02:39:46;;;;;;;2.88;2.60;;;15.40;99.90;;;;;;4993560;28;20028;-51
2021/09/26 02:42:20;;;;;;;3.70;2.92;;;15.40;99.90;;;;;;4993972;28;20029;-52
2021/09/26 02:45:09;;;;;;;2.50;2.30;;;15.40;99.90;;;;;;4994031;28;20203;-50
2021/09/26 02:47:59;;;;;;;3.47;2.60;;;15.40;99.90;;;;;;4993663;28;20030;-52
2021/09/26 02:50:25;;;;;;;3.28;2.13;;;15.40;99.90;;;;;;4993020;28;20022;-50
2021/09/26 02:52:52;;;;;;;4.65;2.58;;;15.40;99.90;;;;;;5008704;28;20018;-51
2021/09/26 02:55:18;;;;;;;6.57;3.00;;;15.40;99.90;;;;;;4993476;28;20085;-52
2021/09/26 02:57:45;;;;;;;3.45;2.88;;;15.40;99.90;;;;;;4993642;28;20088;-52
2021/09/26 03:00:11;;;;;;;2.70;2.50;;;15.40;99.90;;;;;;4993188;28;20037;-57
2021/09/26 03:02:38;;;;;;;3.17;2.88;;;15.40;99.90;;;;;;4993334;28;20050;-55
2021/09/26 03:05:06;;;;;;;4.32;2.53;;;15.30;99.90;;;;;;4993330;28;20077;-53
2021/09/26 03:07:32;;;;;;;2.83;2.60;;;15.30;99.90;;;;;;4993323;28;20037;-52
2021/09/26 03:09:58;;;;;;;3.97;3.00;;;15.30;99.90;;;;;;4992932;28;20041;-49
2021/09/26 03:12:24;;;;;;;2.92;2.70;;;15.30;99.90;;;;;;4993140;28;20034;-53
2021/09/26 03:14:50;;;;;;;3.38;2.53;;;15.30;99.90;;;;;;4993128;28;20098;-53
2021/09/26 03:17:16;;;;;;;4.78;2.30;;;15.30;99.90;;;;;;4993446;28;20492;-55
2021/09/26 03:19:42;;;;;;;2.50;2.35;;;15.30;99.90;;;;;;4992903;28;20109;-56
2021/09/26 03:22:08;;;;;;;3.95;2.80;;;15.30;99.90;;;;;;4993139;28;20022;-58
2021/09/26 03:24:34;;;;;;;5.00;3.20;;;15.30;99.90;;;;;;5002076;22;20058;-53
2021/09/26 03:27:02;;;;;;;4.38;2.85;;;15.30;99.90;;;;;;4954067;28;20016;-53
2021/09/26 03:29:28;;;;;;;3.45;3.00;;;15.30;99.90;;;;;;4953957;28;20028;-53
2021/09/26 03:31:54;;;;;;;4.25;3.00;;;15.20;99.90;;;;;;4954398;28;20700;-51
2021/09/26 03:34:19;;;;;;;3.15;2.72;;;15.20;99.90;;;;;;4958426;28;20054;-52
2021/09/26 03:36:45;;;;;;;3.58;3.13;;;15.20;99.90;;;;;;4972298;28;20119;-52
2021/09/26 03:39:11;;;;;;;3.20;2.90;;;15.20;99.90;;;;;;4973256;28;20038;-53
2021/09/26 03:41:36;;;;;;;4.28;2.80;;;15.20;99.90;;;;;;4973200;28;20438;-52
2021/09/26 03:44:02;;;;;;;4.65;3.03;;;15.20;99.90;;;;;;4973209;28;20035;-53
2021/09/26 03:46:28;;;;;;;3.28;3.00;;;15.20;99.90;;;;;;4973406;28;20033;-52
2021/09/26 03:48:53;;;;;;;3.15;2.95;;;15.20;99.90;;;;;;4973561;28;20031;-53
2021/09/26 03:51:19;;;;;;;3.75;3.35;;;15.20;99.90;;;;;;4972746;28;20038;-53
2021/09/26 03:53:44;;;;;;;3.30;3.00;;;15.20;99.90;;;;;;4973134;28;20493;-52
2021/09/26 03:56:10;;;;;;;3.85;3.30;;;15.20;99.90;;;;;;4973011;28;20023;-52
2021/09/26 03:58:36;;;;;;;3.20;3.00;;;15.20;99.90;;;;;;4972976;28;20041;-50
2021/09/26 04:01:03;;;;;;;3.20;2.90;;;15.20;99.90;;;;;;4972803;28;20042;-52
2021/09/26 04:03:28;;;;;;;6.50;4.00;;;15.20;99.90;;;;;;4973006;28;20023;-53
2021/09/26 04:05:54;;;;;;;4.35;3.67;;;15.20;99.90;;;;;;4972805;28;20023;-55
2021/09/26 04:08:20;;;;;;;4.20;3.47;;;15.20;99.90;;;;;;4973248;28;20031;-52
2021/09/26 04:10:46;;;;;;;7.20;3.90;;;15.20;99.90;;;;;;4972491;28;20038;-51
2021/09/26 04:13:11;;;;;;;3.55;3.25;;;15.20;99.90;;;;;;4972718;28;20027;-53
2021/09/26 04:15:37;;;;;;;4.40;4.00;;;15.20;99.90;;;;;;4972539;28;20039;-52
2021/09/26 04:18:02;;;;;;;4.22;3.83;;;15.20;99.90;;;;;;4971425;28;20026;-54
2021/09/26 04:20:28;;;;;;;4.63;3.78;;;15.20;99.90;;;;;;4971327;28;20120;-54
2021/09/26 04:22:54;;;;;;;4.85;3.90;;;15.20;99.90;;;;;;4972825;28;20053;-54
2021/09/26 04:25:19;;;;;;;4.80;3.78;;;15.20;99.90;;;;;;4971960;28;20039;-53
2021/09/26 04:27:45;;;;;;;4.35;3.97;;;15.20;99.90;;;;;;4972572;28;20035;-53
2021/09/26 04:30:11;;;;;;;7.35;4.80;;;15.20;99.90;;;;;;4972151;28;20034;-53
2021/09/26 04:32:37;;;;;;;5.45;4.38;;;15.20;99.90;;;;;;4972583;28;20115;-52
2021/09/26 04:35:04;;;;;;;5.88;4.80;;;15.20;99.90;;;;;;4972306;28;20026;-55
2021/09/26 04:37:30;;;;;;;5.97;5.10;;;15.30;99.90;;;;;;4972205;28;20149;-51
2021/09/26 04:39:55;;;;;;;5.90;4.50;;;15.30;99.90;;;;;;4971776;28;20035;-52
2021/09/26 04:42:21;;;;;;;6.22;4.82;;;15.30;99.90;;;;;;4972244;28;20110;-54
2021/09/26 04:44:46;;;;;;;6.20;5.10;;;15.30;99.90;;;;;;4971639;28;20494;-52
2021/09/26 04:47:12;;;;;;;9.88;5.18;;;15.30;99.90;;;;;;4970804;28;20081;-52
2021/09/26 04:49:38;;;;;;;6.63;5.28;;;15.30;99.90;;;;;;4971903;28;20371;-54
2021/09/26 04:52:04;;;;;;;6.13;5.13;;;15.30;99.90;;;;;;4972399;28;20127;-52
2021/09/26 04:54:29;;;;;;;5.47;4.90;;;15.30;99.90;;;;;;4972013;28;20027;-54
2021/09/26 04:56:55;;;;;;;7.25;5.43;;;15.30;99.90;;;;;;4954604;28;20027;-52
2021/09/26 04:59:21;;;;;;;6.32;5.22;;;15.40;99.90;;;;;;4970994;28;20027;-53
2021/09/26 05:01:47;;;;;;;6.53;5.88;;;15.40;99.90;;;;;;4971987;28;20030;-54
2021/09/26 05:04:13;;;;;;;7.82;5.72;;;15.40;99.90;;;;;;4971815;28;20382;-53
2021/09/26 05:06:39;;;;;;;7.88;5.60;;;15.40;99.90;;;;;;4971775;28;20037;-51
2021/09/26 05:09:05;;;;;;;7.18;6.10;;;15.40;99.90;;;;;;4971436;28;20023;-52
2021/09/26 05:11:30;;;;;;;7.43;5.65;;;15.40;99.90;;;;;;4971714;28;20477;-52
2021/09/26 05:13:56;;;;;;;6.07;5.47;;;15.40;99.90;;;;;;4971530;28;20482;-53
2021/09/26 05:16:22;;;;;;;7.93;6.10;;;15.40;99.90;;;;;;4971511;28;20102;-53
2021/09/26 05:18:48;;;;;;;6.68;6.07;;;15.40;99.90;;;;;;4971583;28;20481;-51
2021/09/26 05:21:13;;;;;;;6.53;5.90;;;15.40;99.90;;;;;;4969858;28;20039;-52
2021/09/26 05:23:39;;;;;;;5.53;5.03;;;15.50;99.90;;;;;;4971353;28;20030;-52
2021/09/26 05:26:06;;;;;;;6.78;6.15;;;15.40;99.90;;;;;;4971516;28;20117;-52
2021/09/26 05:28:32;;;;;;;10.82;6.45;;;15.50;99.90;;;;;;4971562;28;20047;-53
2021/09/26 05:30:59;;;;;;;6.65;6.05;;;15.50;99.90;;;;;;4971568;28;20035;-53
2021/09/26 05:33:31;;;;;;;6.90;6.13;;;15.50;99.90;;;;;;4971407;28;20034;-56
2021/09/26 05:35:57;;;;;;;7.72;6.28;;;15.50;99.90;;;;;;4971506;28;20029;-52
2021/09/26 05:38:23;;;;;;;8.30;6.30;;;15.50;99.90;;;;;;4971168;28;20030;-52
2021/09/26 05:40:49;;;;;;;6.85;6.25;;;15.50;99.90;;;;;;4971090;28;20023;-53
2021/09/26 05:43:15;;;;;;;7.53;6.75;;;15.50;99.90;;;;;;4971134;28;20081;-54
2021/09/26 05:45:40;;;;;;;8.80;6.25;;;15.60;99.90;;;;;;4971257;28;20516;-55
2021/09/26 05:48:06;;;;;;;7.63;6.82;;;15.60;99.90;;;;;;4971352;28;20054;-55
2021/09/26 05:50:32;;;;;;;11.98;6.78;;;15.60;99.90;;;;;;4970872;28;20481;-54
2021/09/26 05:52:57;;;;;;;6.57;5.97;;;15.60;99.90;;;;;;4971234;28;20042;-54
2021/09/26 05:55:24;;;;;;;9.07;6.75;;;15.60;99.90;;;;;;4971509;28;20030;-54
2021/09/26 05:57:50;;;;;;;7.60;6.80;;;15.60;99.90;;;;;;4974422;28;20568;-52
2021/09/26 06:00:17;;;;;;;7.78;5.82;;;15.60;99.90;;;;;;4974791;28;20034;-52
2021/09/26 06:02:44;;;;;;;8.63;6.88;;;15.60;99.90;;;;;;4975253;28;20401;-52
2021/09/26 06:05:11;;;;;;;7.78;7.03;;;15.60;99.90;;;;;;4975028;28;20055;-53
2021/09/26 06:07:37;;;;;;;6.30;5.80;;;15.70;99.90;;;;;;4974831;28;20015;-54
2021/09/26 06:10:05;;;;;;;7.78;6.97;;;15.70;99.90;;;;;;4974630;28;20093;-57
2021/09/26 06:12:31;;;;;;;8.35;6.95;;;15.70;99.90;;;;;;4974966;28;20434;-55
2021/09/26 06:14:57;;;;;;;8.45;7.65;;;15.70;99.90;;;;;;4974420;28;20074;-53
2021/09/26 06:17:23;;;;;;;7.85;7.05;;;15.80;99.90;;;;;;4974918;28;20018;-55
2021/09/26 06:19:50;;;;;;;7.72;6.93;;;15.80;99.90;;;;;;4974453;28;20078;-54
2021/09/26 06:22:16;;;;;;;9.00;7.78;;;15.80;99.90;;;;;;4974885;28;20026;-53
2021/09/26 06:24:42;;;;;;;10.38;7.45;;;15.80;99.90;;;;;;4974131;28;20389;-54
2021/09/26 06:27:07;;;;;;;7.97;7.20;;;15.90;99.90;;;;;;4974912;28;20035;-53
2021/09/26 06:29:33;;;;;;;9.60;7.75;;;15.90;99.90;;;;;;4974675;28;20034;-55
2021/09/26 06:31:58;;;;;;;10.13;7.15;;;15.90;99.90;;;;;;4974968;28;20500;-53
2021/09/26 06:34:24;;;;;;;8.18;7.30;;;15.90;99.90;;;;;;4974624;28;20477;-54
2021/09/26 06:36:49;;;;;;;8.88;7.10;;;16.00;99.90;;;;;;4974217;28;20039;-54
2021/09/26 06:39:15;;;;;;;7.78;6.85;;;16.00;99.90;;;;;;4974121;28;20038;-53
2021/09/26 06:41:41;;;;;;;8.07;7.38;;;16.00;99.90;;;;;;4974301;28;20077;-54
2021/09/26 06:44:07;;;;;;;11.23;8.48;;;16.00;99.90;;;;;;4974365;28;20417;-52
2021/09/26 06:46:32;;;;;;;8.40;7.68;;;16.10;99.90;;;;;;4974418;28;20023;-55
2021/09/26 06:48:58;;;;;;;10.98;8.20;;;16.10;99.90;;;;;;4974192;28;20432;-54
2021/09/26 06:51:24;;;;;;;8.88;8.07;;;16.20;99.90;;;;;;4973982;28;20500;-54
2021/09/26 06:53:49;;;;;;;8.23;7.53;;;16.20;99.90;;;;;;4974270;28;20070;-52
2021/09/26 06:56:15;;;;;;;9.25;8.27;;;16.30;99.90;;;;;;4973988;28;20470;-52
2021/09/26 06:58:41;;;;;;;9.98;8.63;;;16.30;99.90;;;;;;4972962;28;20033;-52
2021/09/26 07:01:08;;;;;;;10.48;8.40;;;16.40;99.90;;;;;;4974186;28;20520;-52
2021/09/26 07:03:33;;;;;;;9.43;8.45;;;16.50;99.90;;;;;;4974503;28;20027;-53
2021/09/26 07:05:59;;;;;;;9.52;7.35;;;16.60;99.90;;;;;;4973765;28;20600;-53
2021/09/26 07:08:25;;;;;;;9.20;8.05;;;16.70;99.90;;;;;;4973391;28;20367;-52
2021/09/26 07:10:50;;;;;;;8.18;7.38;;;16.80;99.90;;;;;;4973575;28;20046;-52
2021/09/26 07:13:16;;;;;;;8.25;7.45;;;16.90;99.90;;;;;;4973917;28;20061;-53
2021/09/26 07:15:42;;;;;;;8.05;7.25;;;17.00;99.90;;;;;;4973347;28;20031;-53
2021/09/26 07:18:07;;;;;;;8.73;7.82;;;17.00;99.90;;;;;;4973728;28;20041;-51
2021/09/26 07:20:33;;;;;;;7.53;6.63;;;17.00;99.90;;;;;;4971438;28;20113;-54
2021/09/26 07:23:00;;;;;;;7.57;6.97;;;17.10;99.90;;;;;;4973323;28;20113;-52
2021/09/26 07:25:27;;;;;;;7.82;6.70;;;17.10;99.90;;;;;;4972794;28;20039;-53
2021/09/26 07:27:53;;;;;;;8.30;7.47;;;17.20;99.90;;;;;;4973340;28;20019;-53
2021/09/26 07:30:18;;;;;;;7.35;6.55;;;17.30;99.90;;;;;;4972909;28;20631;-54
2021/09/26 07:32:44;;;;;;;8.80;7.22;;;17.40;99.90;;;;;;4972997;28;20405;-53
2021/09/26 07:35:10;;;;;;;8.02;6.60;;;17.50;99.90;;;;;;4973302;28;20516;-56
2021/09/26 07:37:37;;;;;;;6.80;6.20;;;17.60;99.90;;;;;;4973431;28;20057;-52
2021/09/26 07:40:04;;;;;;;7.40;6.30;;;17.70;99.90;;;;;;4972983;28;20034;-54
2021/09/26 07:42:30;;;;;;;9.82;6.43;;;17.80;99.90;;;;;;4972968;28;20015;-53
2021/09/26 07:45:03;;;;;;;8.45;5.70;;;18.00;99.90;;;;;;4972946;28;20401;-53
2021/09/26 07:47:32;;;;;;;10.45;5.97;;;18.10;99.90;;;;;;4972974;28;20019;-53
2021/09/26 07:49:58;;;;;;;6.30;5.45;;;18.30;99.90;;;;;;4972603;28;20031;-52
2021/09/26 07:52:24;;;;;;;5.55;4.82;;;18.40;99.90;;;;;;4973053;28;20082;-53
2021/09/26 07:54:50;;;;;;;7.68;5.50;;;18.60;99.90;;;;;;4972774;28;20065;-55
2021/09/26 07:57:19;;;;;;;5.97;5.45;;;18.70;99.90;;;;;;4972706;28;20023;-52
2021/09/26 07:59:46;;;;;;;5.82;5.22;;;18.90;99.90;;;;;;4971147;28;20466;-53
2021/09/26 08:02:11;;;;;;;5.22;4.75;;;19.10;99.90;;;;;;4972577;28;20096;-52
2021/09/26 08:04:37;;;;;;;5.22;4.80;;;19.20;99.90;;;;;;4972872;28;20106;-56
2021/09/26 08:07:03;;;;;;;5.05;4.55;;;19.40;99.90;;;;;;4972814;28;20069;-52
2021/09/26 08:09:28;;;;;;;5.32;4.82;;;19.60;99.90;;;;;;4972444;28;20035;-53
2021/09/26 08:11:54;;;;;;;5.28;4.80;;;19.80;99.90;;;;;;4972656;28;20030;-53
2021/09/26 08:14:20;;;;;;;4.47;4.07;;;20.00;99.90;;;;;;4972087;28;20177;-52
2021/09/26 08:16:45;;;;;;;4.53;3.97;;;20.10;99.90;;;;;;4972472;28;20120;-53
2021/09/26 08:19:11;;;;;;;4.55;4.15;;;20.30;99.90;;;;;;4972003;28;20034;-53
2021/09/26 08:21:36;;;;;;;4.65;4.07;;;20.40;99.90;;;;;;4971591;28;20516;-53
2021/09/26 08:24:06;;;;;;;4.97;4.03;;;20.60;99.90;;;;;;4972228;28;20023;-54
2021/09/26 08:26:32;;;;;;;4.13;3.83;;;20.70;99.90;;;;;;4971841;28;20026;-54
2021/09/26 08:28:57;;;;;;;5.85;3.40;;;20.80;99.90;;;;;;4972473;28;20037;-55
2021/09/26 08:31:23;;;;;;;4.90;3.85;;;20.90;99.90;;;;;;4972333;28;20066;-53
2021/09/26 08:33:48;;;;;;;6.03;3.60;;;21.00;99.90;;;;;;4972086;28;20023;-55
2021/09/26 08:36:14;;;;;;;4.53;3.30;;;21.10;99.90;;;;;;4972469;28;20501;-52
2021/09/26 08:38:40;;;;;;;3.72;3.42;;;21.20;99.90;;;;;;4972408;28;20039;-52
2021/09/26 08:41:05;;;;;;;3.55;3.25;;;21.20;99.90;;;;;;4970963;28;20082;-52
2021/09/26 08:43:31;;;;;;;6.25;3.40;;;21.40;99.90;;;;;;4972486;28;20034;-55
2021/09/26 08:45:57;;;;;;;2.97;2.70;;;21.40;99.90;;;;;;4972017;28;20474;-54
2021/09/26 08:48:23;;;;;;;2.72;2.53;;;21.50;99.90;;;;;;4971501;28;20034;-54
2021/09/26 08:50:50;;;;;;;6.65;3.47;;;21.60;99.90;;;;;;4970519;28;20035;-53
2021/09/26 08:53:17;;;;;;;3.03;2.83;;;21.70;99.90;;;;;;4971956;28;20093;-52
2021/09/26 08:55:43;;;;;;;4.03;3.00;;;21.80;99.90;;;;;;4972129;28;20073;-52
2021/09/26 08:58:09;;;;;;;3.92;3.30;;;21.80;99.90;;;;;;4971759;28;20023;-52
2021/09/26 09:00:36;;;;;;;5.22;3.22;;;21.70;99.90;;;;;;4971196;28;20397;-52
2021/09/26 09:03:02;;;;;;;3.75;3.20;;;21.80;99.90;;;;;;4971510;28;20015;-52
2021/09/26 09:05:40;;;;;;;2.95;2.70;;;21.80;99.90;;;;;;4970773;28;20026;-52
2021/09/26 09:08:18;;;;;;;3.22;2.85;;;21.80;99.90;;;;;;4971414;28;20101;-54
2021/09/26 09:10:48;;;;;;;2.95;2.53;;;21.80;99.90;;;;;;4971206;28;20474;-52
2021/09/26 09:13:20;;;;;;;3.13;2.70;;;21.80;99.90;;;;;;4971758;28;20121;-52
2021/09/26 09:16:01;;;;;;;2.85;2.65;;;21.80;99.90;;;;;;4969838;28;20023;-54
2021/09/26 09:18:40;;;;;;;3.22;2.78;;;21.80;99.90;;;;;;4970221;28;20096;-52
2021/09/26 09:21:18;;;;;;;4.18;2.90;;;21.80;99.90;;;;;;4971388;28;20027;-52
2021/09/26 09:23:43;;;;;;;3.22;2.63;;;21.70;99.90;;;;;;4971724;28;20026;-53
2021/09/26 09:26:09;;;;;;;2.95;2.67;;;21.70;99.90;;;;;;4966324;23;20411;-55
2021/09/26 09:28:39;;;;;;;2.83;2.63;;;21.70;99.90;;;;;;4933052;29;20024;-55
2021/09/26 09:31:06;;;;;;;3.03;2.72;;;21.70;99.90;;;;;;4931432;29;20426;-52
2021/09/26 09:33:43;;;;;;;4.18;2.78;;;21.60;99.90;;;;;;4933248;29;20023;-54
2021/09/26 09:36:28;;;;;;;3.40;3.10;;;21.70;99.90;;;;;;4933250;29;20491;-54
2021/09/26 09:39:00;;;;;;;3.17;2.97;;;21.60;99.90;;;;;;4932009;29;20379;-56
2021/09/26 09:41:37;;;;;;;3.35;2.70;;;21.60;99.90;;;;;;4932994;29;20447;-53
2021/09/26 09:44:05;;;;;;;3.50;3.20;;;21.60;99.90;;;;;;4933000;29;20058;-51
2021/09/26 09:46:43;;;;;;;3.75;3.45;;;21.60;99.90;;;;;;4933368;29;20083;-54
2021/09/26 09:49:14;;;;;;;3.15;2.88;;;21.60;99.90;;;;;;4933328;29;20422;-55
2021/09/26 09:51:55;;;;;;;3.42;2.88;;;21.60;99.90;;;;;;4931875;29;20038;-50
2021/09/26 09:54:36;;;;;;;4.40;3.42;;;21.60;99.90;;;;;;4932924;29;20091;-55
2021/09/26 09:57:13;;;;;;;3.35;3.05;;;21.60;99.90;;;;;;4932919;29;20028;-51
2021/09/26 09:59:40;;;;;;;3.33;3.03;;;21.60;99.90;;;;;;4932901;29;20063;-54
2021/09/26 10:02:05;;;;;;;4.20;2.83;;;21.60;99.90;;;;;;4932756;29;20036;-55
2021/09/26 10:04:39;;;;;;;3.13;2.72;;;21.60;99.90;;;;;;4932885;29;20035;-53
2021/09/26 10:07:17;;;;;;;3.60;3.30;;;21.60;99.90;;;;;;4931464;29;20035;-52
2021/09/26 10:09:43;;;;;;;3.35;2.60;;;21.60;99.90;;;;;;4931278;29;20020;-55
2021/09/26 10:12:26;;;;;;;3.25;2.97;;;21.60;99.90;;;;;;4933024;29;20024;-51
2021/09/26 10:14:54;;;;;;;3.10;2.78;;;21.70;99.90;;;;;;4932836;29;20027;-52
2021/09/26 10:17:20;;;;;;;3.17;2.88;;;21.70;99.90;;;;;;4933070;29;20031;-54
2021/09/26 10:19:46;;;;;;;3.15;2.85;;;21.70;99.90;;;;;;4933159;29;20390;-54
2021/09/26 10:22:15;;;;;;;3.08;2.78;;;21.70;99.90;;;;;;4933222;29;20032;-53
2021/09/26 10:24:47;;;;;;;3.10;2.83;;;21.70;99.90;;;;;;4932483;29;20479;-52
2021/09/26 10:27:18;;;;;;;3.97;2.90;;;21.70;99.90;;;;;;4932823;29;20122;-52
2021/09/26 10:29:45;;;;;;;3.10;2.90;;;21.80;99.90;;;;;;4932572;29;20051;-54
2021/09/26 10:32:12;;;;;;;3.25;2.97;;;21.80;99.90;;;;;;4932420;29;20095;-53
2021/09/26 10:34:39;;;;;;;3.17;2.70;;;21.80;99.90;;;;;;4931326;29;20110;-54
2021/09/26 10:37:10;;;;;;;3.47;2.80;;;21.80;99.90;;;;;;4932140;29;20495;-52
2021/09/26 10:39:37;;;;;;;3.00;2.63;;;21.80;99.90;;;;;;4932466;29;20028;-56
2021/09/26 10:42:08;;;;;;;2.65;2.45;;;21.90;99.90;;;;;;4932644;29;20019;-55
2021/09/26 10:44:43;;;;;;;3.88;2.92;;;21.90;99.90;;;;;;4935124;29;20079;-54
2021/09/26 10:47:17;;;;;;;2.90;2.70;;;21.90;99.90;;;;;;4936257;29;20023;-55
2021/09/26 10:50:03;;;;;;;3.38;3.08;;;21.90;99.90;;;;;;4935962;29;20027;-55
2021/09/26 10:52:30;;;;;;;;;;;21.90;99.90;;;;;;4936754;29;20020;-52
2021/09/26 10:55:21;;;;;;;2.88;2.67;;;22.00;99.90;;;;;;4936020;29;19911;-54
2021/09/26 10:57:47;;;;;;;3.38;3.08;;;22.00;99.90;;;;;;4935566;29;20038;-54
2021/09/26 11:00:33;;;;;;;3.38;2.42;;;22.00;99.90;;;;;;4934455;29;20020;-53
2021/09/26 11:03:06;;;;;;;2.70;2.50;;;22.00;99.90;;;;;;4936274;29;20027;-52
2021/09/26 11:05:35;;;;;;;3.47;3.00;;;22.00;99.90;;;;;;4935861;29;20020;-51
2021/09/26 11:08:02;;;;;;;5.60;2.88;;;22.00;99.90;;;;;;4935944;29;20452;-54
2021/09/26 11:10:39;;;;;;;3.53;2.88;;;22.00;99.90;;;;;;4918594;29;20491;-50
2021/09/26 11:13:19;;;;;;;3.10;2.80;;;22.00;99.90;;;;;;4935996;29;20031;-51
2021/09/26 11:16:13;;;;;;;3.80;3.15;;;22.00;99.90;;;;;;4935433;29;20031;-52
2021/09/26 11:18:42;;;;;;;2.80;2.53;;;22.10;99.90;;;;;;4935487;29;20034;-53
2021/09/26 11:21:08;;;;;;;3.20;3.00;;;22.10;99.90;;;;;;4935537;29;20031;-57
2021/09/26 11:23:35;;;;;;;3.35;2.75;;;22.10;99.90;;;;;;4935971;29;20030;-50
2021/09/26 11:26:03;;;;;;;3.45;3.15;;;22.10;99.90;;;;;;4934025;29;20035;-51
2021/09/26 11:28:37;;;;;;;3.88;3.47;;;22.10;99.90;;;;;;4935248;29;20482;-54
2021/09/26 11:31:09;;;;;;;3.22;2.90;;;22.10;99.90;;;;;;4935078;29;20501;-53
2021/09/26 11:33:56;;;;;;;3.30;3.00;;;22.20;99.90;;;;;;4935424;29;20051;-51
2021/09/26 11:36:23;;;;;;;3.85;3.33;;;22.20;99.90;;;;;;4934077;29;20027;-57
2021/09/26 11:38:49;;;;;;;3.35;3.05;;;22.30;99.90;;;;;;4935132;29;20035;-53
2021/09/26 11:41:15;;;;;;;3.17;2.90;;;22.30;99.90;;;;;;4934811;29;20120;-54
2021/09/26 11:44:01;;;;;;;3.65;3.35;;;22.30;99.90;;;;;;4935137;29;20086;-55
2021/09/26 11:46:27;;;;;;;;;;;22.30;99.90;;;;;;4935391;29;20024;-55
2021/09/26 11:49:03;;;;;;;3.65;3.35;;;22.30;99.90;;;;;;4935154;29;19914;-56
2021/09/26 11:51:28;;;;;;;3.60;3.30;;;22.30;99.90;;;;;;4935129;29;20032;-54
2021/09/26 11:53:54;;;;;;;4.90;3.78;;;22.30;99.90;;;;;;4935017;29;20127;-55
2021/09/26 11:56:21;;;;;;;3.38;3.08;;;22.30;99.90;;;;;;4935215;29;20043;-55
2021/09/26 11:58:51;;;;;;;3.40;3.10;;;22.30;99.90;;;;;;4934875;29;20036;-53
2021/09/26 12:01:33;;;;;;;3.90;3.60;;;22.20;99.90;;;;;;4934518;29;20062;-57
2021/09/26 12:04:09;;;;;;;4.25;3.85;;;22.20;99.90;;;;;;4933419;29;20062;-55
2021/09/26 12:06:35;;;;;;;5.07;3.40;;;22.20;99.90;;;;;;4934667;29;20028;-52
2021/09/26 12:09:01;;;;;;;3.75;3.45;;;22.10;99.90;;;;;;4933155;29;20122;-56
2021/09/26 12:11:27;;;;;;;3.58;3.28;;;22.10;99.90;;;;;;4934655;29;20036;-56
2021/09/26 12:13:54;;;;;;;4.03;3.63;;;22.10;99.90;;;;;;4934602;29;20035;-53
2021/09/26 12:16:22;;;;;;;3.50;3.20;;;22.10;99.90;;;;;;4934384;29;20479;-53
2021/09/26 12:18:54;;;;;;;3.80;3.50;;;22.10;99.90;;;;;;4934694;29;20023;-55
2021/09/26 12:21:24;;;;;;;3.90;3.60;;;22.20;99.90;;;;;;4934355;29;20030;-56
2021/09/26 12:23:59;;;;;;;3.55;3.25;;;22.20;99.90;;;;;;4934571;29;20032;-55
2021/09/26 12:26:35;;;;;;;4.85;3.60;;;22.30;99.90;;;;;;4934193;29;20046;-54
2021/09/26 12:29:25;;;;;;;4.10;3.70;;;22.30;99.90;;;;;;4933963;29;20076;-54
2021/09/26 12:31:55;;;;;;;4.57;3.70;;;22.40;99.90;;;;;;4933018;29;20063;-51
2021/09/26 12:34:27;;;;;;;4.38;3.47;;;22.50;99.90;;;;;;4934034;29;20383;-56
2021/09/26 12:36:53;;;;;;;3.63;3.38;;;22.60;99.90;;;;;;4934038;29;20023;-51
2021/09/26 12:39:36;;;;;;;4.00;3.70;;;22.60;99.90;;;;;;4933623;29;20055;-53
2021/09/26 12:42:02;;;;;;;5.03;3.70;;;22.60;99.90;;;;;;4933995;29;20024;-52
2021/09/26 12:44:37;;;;;;;4.20;3.75;;;22.60;99.90;;;;;;4933855;29;20026;-50
2021/09/26 12:47:17;;;;;;;3.63;3.33;;;22.50;99.90;;;;;;4932510;29;20067;-56
2021/09/26 12:49:45;;;;;;;6.25;3.53;;;22.50;99.90;;;;;;4933412;29;20468;-57
2021/09/26 12:52:21;;;;;;;4.03;3.83;;;22.50;99.90;;;;;;4933809;29;20036;-55
2021/09/26 12:54:52;;;;;;;4.28;3.33;;;22.60;99.90;;;;;;4933918;29;20028;-56
2021/09/26 12:57:23;;;;;;;4.10;3.70;;;22.60;99.90;;;;;;4934052;29;20087;-54